< < Back
Terminal Aerodrome Forecast


Current Version              Previous Versions:   1  2  3  4  5  6  7  8  9  

Terminal Aerodrome Forecast

101
FTUS42 KCAE 241400 AAA
TAFCAE
TAF AMD
KCAE 241426Z 2414/2512 23008KT P6SM BKN015 BKN025
     FM241700 23014G25KT P6SM BKN025
     FM242100 24012G20KT P6SM SCT015 BKN035
     FM242300 25005KT P6SM OVC050
     FM250600 26005KT P6SM OVC025=

Latest METAR

344
SAUS80 KWBC 242000
MTRCAE
METAR KCAE 241956Z 19012KT 10SM BKN100 BKN120 23/18 A2979 RMK AO2 RAE11
SLP086 VIRGA P0000 T02280178


USA.gov is the U.S. government's official web portal to all federal, state and local government web resources and services.